sensor_id;sensor_type;location;lat;lon;timestamp;temperature;humidity
3100;DHT22;1560;52.746;13.474;2022-10-17T00:01:35;12.20;99.90
3100;DHT22;1560;52.746;13.474;2022-10-17T00:06:40;12.20;99.90
3100;DHT22;1560;52.746;13.474;2022-10-17T00:09:08;12.10;99.90
3100;DHT22;1560;52.746;13.474;2022-10-17T00:14:13;12.20;99.90
3100;DHT22;1560;52.746;13.474;2022-10-17T00:16:41;12.20;99.90
3100;DHT22;1560;52.746;13.474;2022-10-17T00:19:10;12.20;99.90
3100;DHT22;1560;52.746;13.474;2022-10-17T00:21:38;12.20;99.90
3100;DHT22;1560;52.746;13.474;2022-10-17T00:26:43;12.20;99.90
3100;DHT22;1560;52.746;13.474;2022-10-17T00:29:11;12.30;99.90
3100;DHT22;1560;52.746;13.474;2022-10-17T00:34:16;12.30;99.90
3100;DHT22;1560;52.746;13.474;2022-10-17T00:36:44;12.30;99.90
3100;DHT22;1560;52.746;13.474;2022-10-17T00:39:13;12.30;99.90
3100;DHT22;1560;52.746;13.474;2022-10-17T00:44:57;12.30;99.90
3100;DHT22;1560;52.746;13.474;2022-10-17T00:47:27;12.30;99.90
3100;DHT22;1560;52.746;13.474;2022-10-17T00:55:16;12.40;99.90
3100;DHT22;1560;52.746;13.474;2022-10-17T00:57:44;12.40;99.90
3100;DHT22;1560;52.746;13.474;2022-10-17T01:00:16;12.40;99.90
3100;DHT22;1560;52.746;13.474;2022-10-17T01:02:45;12.40;99.90
3100;DHT22;1560;52.746;13.474;2022-10-17T01:07:51;12.40;99.90
3100;DHT22;1560;52.746;13.474;2022-10-17T01:13:02;12.40;99.90
3100;DHT22;1560;52.746;13.474;2022-10-17T01:15:37;12.40;99.90
3100;DHT22;1560;52.746;13.474;2022-10-17T01:21:14;12.40;99.90
3100;DHT22;1560;52.746;13.474;2022-10-17T01:26:58;12.40;99.90
3100;DHT22;1560;52.746;13.474;2022-10-17T01:29:37;12.30;99.90
3100;DHT22;1560;52.746;13.474;2022-10-17T01:32:09;12.40;99.90
3100;DHT22;1560;52.746;13.474;2022-10-17T01:37:17;12.40;99.90
3100;DHT22;1560;52.746;13.474;2022-10-17T01:39:49;12.40;99.90
3100;DHT22;1560;52.746;13.474;2022-10-17T01:42:21;12.40;99.90
3100;DHT22;1560;52.746;13.474;2022-10-17T01:44:53;12.40;99.90
3100;DHT22;1560;52.746;13.474;2022-10-17T01:50:02;12.50;99.90
3100;DHT22;1560;52.746;13.474;2022-10-17T01:52:36;12.50;99.90
3100;DHT22;1560;52.746;13.474;2022-10-17T01:55:05;12.40;99.90
3100;DHT22;1560;52.746;13.474;2022-10-17T01:57:38;12.50;99.90
3100;DHT22;1560;52.746;13.474;2022-10-17T02:00:11;12.50;99.90
3100;DHT22;1560;52.746;13.474;2022-10-17T02:02:41;12.50;99.90
3100;DHT22;1560;52.746;13.474;2022-10-17T02:07:47;12.50;99.90
3100;DHT22;1560;52.746;13.474;2022-10-17T02:12:57;12.50;99.90
3100;DHT22;1560;52.746;13.474;2022-10-17T02:15:39;12.40;99.90
3100;DHT22;1560;52.746;13.474;2022-10-17T02:18:21;12.40;99.90
3100;DHT22;1560;52.746;13.474;2022-10-17T02:20:52;12.40;99.90
3100;DHT22;1560;52.746;13.474;2022-10-17T02:36:01;12.30;99.90
3100;DHT22;1560;52.746;13.474;2022-10-17T02:38:31;12.30;99.90
3100;DHT22;1560;52.746;13.474;2022-10-17T02:41:00;12.30;99.90
3100;DHT22;1560;52.746;13.474;2022-10-17T02:43:29;12.30;99.90
3100;DHT22;1560;52.746;13.474;2022-10-17T02:45:58;12.30;99.90
3100;DHT22;1560;52.746;13.474;2022-10-17T02:48:29;12.20;99.90
3100;DHT22;1560;52.746;13.474;2022-10-17T02:53:49;12.20;99.90
3100;DHT22;1560;52.746;13.474;2022-10-17T02:56:13;12.20;99.90
3100;DHT22;1560;52.746;13.474;2022-10-17T02:58:42;12.20;99.90
3100;DHT22;1560;52.746;13.474;2022-10-17T03:01:13;12.20;99.90
3100;DHT22;1560;52.746;13.474;2022-10-17T03:06:18;12.30;99.90
3100;DHT22;1560;52.746;13.474;2022-10-17T03:08:47;12.30;99.90
3100;DHT22;1560;52.746;13.474;2022-10-17T03:11:16;12.30;99.90
3100;DHT22;1560;52.746;13.474;2022-10-17T03:16:22;12.40;99.90
3100;DHT22;1560;52.746;13.474;2022-10-17T03:18:51;12.40;99.90
3100;DHT22;1560;52.746;13.474;2022-10-17T03:21:19;12.40;99.90
3100;DHT22;1560;52.746;13.474;2022-10-17T03:23:47;12.40;99.90
3100;DHT22;1560;52.746;13.474;2022-10-17T03:28:52;12.50;99.90
3100;DHT22;1560;52.746;13.474;2022-10-17T03:31:21;12.50;99.90
3100;DHT22;1560;52.746;13.474;2022-10-17T03:33:50;12.50;99.90
3100;DHT22;1560;52.746;13.474;2022-10-17T03:36:18;12.50;99.90
3100;DHT22;1560;52.746;13.474;2022-10-17T03:38:48;12.50;99.90
3100;DHT22;1560;52.746;13.474;2022-10-17T03:41:18;12.60;99.90
3100;DHT22;1560;52.746;13.474;2022-10-17T03:43:46;12.60;99.90
3100;DHT22;1560;52.746;13.474;2022-10-17T03:46:15;12.70;99.90
3100;DHT22;1560;52.746;13.474;2022-10-17T03:48:43;12.70;99.90
3100;DHT22;1560;52.746;13.474;2022-10-17T03:51:12;12.80;99.90
3100;DHT22;1560;52.746;13.474;2022-10-17T03:53:41;12.80;99.90
3100;DHT22;1560;52.746;13.474;2022-10-17T03:56:12;12.90;99.90
3100;DHT22;1560;52.746;13.474;2022-10-17T03:58:40;13.00;99.90
3100;DHT22;1560;52.746;13.474;2022-10-17T04:01:11;13.00;99.90
3100;DHT22;1560;52.746;13.474;2022-10-17T04:03:39;13.00;99.90
3100;DHT22;1560;52.746;13.474;2022-10-17T04:06:10;13.00;99.90
3100;DHT22;1560;52.746;13.474;2022-10-17T04:11:17;13.10;99.90
3100;DHT22;1560;52.746;13.474;2022-10-17T04:13:47;13.10;99.90
3100;DHT22;1560;52.746;13.474;2022-10-17T04:16:16;13.10;99.90
3100;DHT22;1560;52.746;13.474;2022-10-17T04:18:45;13.10;99.90
3100;DHT22;1560;52.746;13.474;2022-10-17T04:23:53;13.20;99.90
3100;DHT22;1560;52.746;13.474;2022-10-17T04:26:22;13.20;99.90
3100;DHT22;1560;52.746;13.474;2022-10-17T04:28:50;13.20;99.90
3100;DHT22;1560;52.746;13.474;2022-10-17T04:33:55;13.20;99.90
3100;DHT22;1560;52.746;13.474;2022-10-17T04:36:24;13.20;99.90
3100;DHT22;1560;52.746;13.474;2022-10-17T04:38:52;13.20;99.90
3100;DHT22;1560;52.746;13.474;2022-10-17T04:41:21;13.30;99.90
3100;DHT22;1560;52.746;13.474;2022-10-17T04:43:49;13.30;99.90
3100;DHT22;1560;52.746;13.474;2022-10-17T04:48:54;13.40;99.90
3100;DHT22;1560;52.746;13.474;2022-10-17T04:53:58;13.40;99.90
3100;DHT22;1560;52.746;13.474;2022-10-17T04:56:27;13.40;99.90
3100;DHT22;1560;52.746;13.474;2022-10-17T04:58:55;13.50;99.90
3100;DHT22;1560;52.746;13.474;2022-10-17T05:04:03;13.50;99.90
3100;DHT22;1560;52.746;13.474;2022-10-17T05:06:31;13.50;99.90
3100;DHT22;1560;52.746;13.474;2022-10-17T05:09:00;13.50;99.90
3100;DHT22;1560;52.746;13.474;2022-10-17T05:14:05;13.40;99.90
3100;DHT22;1560;52.746;13.474;2022-10-17T05:16:33;13.50;99.90
3100;DHT22;1560;52.746;13.474;2022-10-17T05:19:03;13.50;99.90
3100;DHT22;1560;52.746;13.474;2022-10-17T05:24:10;13.50;99.90
3100;DHT22;1560;52.746;13.474;2022-10-17T05:26:38;13.40;99.90
3100;DHT22;1560;52.746;13.474;2022-10-17T05:29:07;13.40;99.90
3100;DHT22;1560;52.746;13.474;2022-10-17T05:34:12;13.30;99.90
3100;DHT22;1560;52.746;13.474;2022-10-17T05:36:41;13.40;99.90
3100;DHT22;1560;52.746;13.474;2022-10-17T05:39:11;13.40;99.90
3100;DHT22;1560;52.746;13.474;2022-10-17T05:41:41;13.40;99.90
3100;DHT22;1560;52.746;13.474;2022-10-17T05:44:09;13.40;99.90
3100;DHT22;1560;52.746;13.474;2022-10-17T05:46:37;13.40;99.90
3100;DHT22;1560;52.746;13.474;2022-10-17T05:49:08;13.40;99.90
3100;DHT22;1560;52.746;13.474;2022-10-17T05:54:12;13.40;99.90
3100;DHT22;1560;52.746;13.474;2022-10-17T05:56:41;13.40;99.90
3100;DHT22;1560;52.746;13.474;2022-10-17T05:59:09;13.40;99.90
3100;DHT22;1560;52.746;13.474;2022-10-17T06:01:38;13.40;99.90
3100;DHT22;1560;52.746;13.474;2022-10-17T06:06:42;13.50;99.90
3100;DHT22;1560;52.746;13.474;2022-10-17T06:09:11;13.50;99.90
3100;DHT22;1560;52.746;13.474;2022-10-17T06:11:40;13.50;99.90
3100;DHT22;1560;52.746;13.474;2022-10-17T06:14:08;13.50;99.90
3100;DHT22;1560;52.746;13.474;2022-10-17T06:16:37;13.60;99.90
3100;DHT22;1560;52.746;13.474;2022-10-17T06:19:05;13.60;99.90
3100;DHT22;1560;52.746;13.474;2022-10-17T06:24:10;13.60;99.90
3100;DHT22;1560;52.746;13.474;2022-10-17T06:26:38;13.70;99.90
3100;DHT22;1560;52.746;13.474;2022-10-17T06:29:07;13.70;99.90
3100;DHT22;1560;52.746;13.474;2022-10-17T06:34:11;13.70;99.90
3100;DHT22;1560;52.746;13.474;2022-10-17T06:36:40;13.80;99.90
3100;DHT22;1560;52.746;13.474;2022-10-17T06:39:08;13.70;99.90
3100;DHT22;1560;52.746;13.474;2022-10-17T06:41:37;13.80;99.90
3100;DHT22;1560;52.746;13.474;2022-10-17T06:46:44;13.80;99.90
3100;DHT22;1560;52.746;13.474;2022-10-17T06:49:13;13.80;99.90
3100;DHT22;1560;52.746;13.474;2022-10-17T06:54:18;13.80;99.90
3100;DHT22;1560;52.746;13.474;2022-10-17T06:56:46;13.80;99.90
3100;DHT22;1560;52.746;13.474;2022-10-17T06:59:15;13.90;99.90
3100;DHT22;1560;52.746;13.474;2022-10-17T07:01:43;13.90;99.90
3100;DHT22;1560;52.746;13.474;2022-10-17T07:04:12;13.90;99.90
3100;DHT22;1560;52.746;13.474;2022-10-17T07:06:41;14.00;99.90
3100;DHT22;1560;52.746;13.474;2022-10-17T07:11:45;14.00;99.90
3100;DHT22;1560;52.746;13.474;2022-10-17T07:14:14;14.00;99.90
3100;DHT22;1560;52.746;13.474;2022-10-17T07:16:42;14.00;99.90
3100;DHT22;1560;52.746;13.474;2022-10-17T07:19:11;14.10;99.90
3100;DHT22;1560;52.746;13.474;2022-10-17T07:24:16;14.10;99.90
3100;DHT22;1560;52.746;13.474;2022-10-17T07:26:45;14.20;99.90
3100;DHT22;1560;52.746;13.474;2022-10-17T07:29:14;14.20;99.90
3100;DHT22;1560;52.746;13.474;2022-10-17T07:31:42;14.20;99.90
3100;DHT22;1560;52.746;13.474;2022-10-17T07:34:11;14.30;99.90
3100;DHT22;1560;52.746;13.474;2022-10-17T07:39:16;14.30;99.90
3100;DHT22;1560;52.746;13.474;2022-10-17T07:44:21;14.30;99.90
3100;DHT22;1560;52.746;13.474;2022-10-17T07:46:50;14.40;99.90
3100;DHT22;1560;52.746;13.474;2022-10-17T07:49:18;14.30;99.90
3100;DHT22;1560;52.746;13.474;2022-10-17T07:51:48;14.40;99.90
3100;DHT22;1560;52.746;13.474;2022-10-17T07:56:52;14.50;99.90
3100;DHT22;1560;52.746;13.474;2022-10-17T07:59:21;14.50;99.90
3100;DHT22;1560;52.746;13.474;2022-10-17T08:01:50;14.60;99.90
3100;DHT22;1560;52.746;13.474;2022-10-17T08:06:56;14.70;99.90
3100;DHT22;1560;52.746;13.474;2022-10-17T08:09:25;14.70;99.90
3100;DHT22;1560;52.746;13.474;2022-10-17T08:11:53;14.80;99.90
3100;DHT22;1560;52.746;13.474;2022-10-17T08:14:22;14.80;99.90
3100;DHT22;1560;52.746;13.474;2022-10-17T08:16:50;14.80;99.90
3100;DHT22;1560;52.746;13.474;2022-10-17T08:19:20;14.90;99.90
3100;DHT22;1560;52.746;13.474;2022-10-17T08:21:49;14.90;99.90
3100;DHT22;1560;52.746;13.474;2022-10-17T08:26:54;15.00;99.90
3100;DHT22;1560;52.746;13.474;2022-10-17T08:29:24;15.10;99.90
3100;DHT22;1560;52.746;13.474;2022-10-17T08:31:53;15.20;99.90
3100;DHT22;1560;52.746;13.474;2022-10-17T08:34:21;15.30;99.90
3100;DHT22;1560;52.746;13.474;2022-10-17T08:36:50;15.40;99.90
3100;DHT22;1560;52.746;13.474;2022-10-17T08:39:18;15.50;99.90
3100;DHT22;1560;52.746;13.474;2022-10-17T08:41:56;15.50;99.90
3100;DHT22;1560;52.746;13.474;2022-10-17T08:44:37;15.60;99.90
3100;DHT22;1560;52.746;13.474;2022-10-17T08:49:45;15.80;99.90
3100;DHT22;1560;52.746;13.474;2022-10-17T08:52:19;16.00;99.90
3100;DHT22;1560;52.746;13.474;2022-10-17T08:54:48;16.30;99.90
3100;DHT22;1560;52.746;13.474;2022-10-17T08:57:18;16.50;99.90
3100;DHT22;1560;52.746;13.474;2022-10-17T09:02:33;17.00;99.90
3100;DHT22;1560;52.746;13.474;2022-10-17T09:07:44;17.30;99.90
3100;DHT22;1560;52.746;13.474;2022-10-17T09:10:17;17.20;99.90
3100;DHT22;1560;52.746;13.474;2022-10-17T09:12:48;17.20;99.90
3100;DHT22;1560;52.746;13.474;2022-10-17T09:18:11;17.10;99.90
3100;DHT22;1560;52.746;13.474;2022-10-17T09:23:20;17.10;99.90
3100;DHT22;1560;52.746;13.474;2022-10-17T09:25:51;17.10;99.90
3100;DHT22;1560;52.746;13.474;2022-10-17T09:28:24;17.20;99.90
3100;DHT22;1560;52.746;13.474;2022-10-17T09:33:36;17.20;99.90
3100;DHT22;1560;52.746;13.474;2022-10-17T09:36:08;17.40;99.90
3100;DHT22;1560;52.746;13.474;2022-10-17T09:41:21;17.40;99.90
3100;DHT22;1560;52.746;13.474;2022-10-17T09:43:52;17.40;99.90
3100;DHT22;1560;52.746;13.474;2022-10-17T09:49:00;17.50;99.90
3100;DHT22;1560;52.746;13.474;2022-10-17T09:54:10;17.70;99.90
3100;DHT22;1560;52.746;13.474;2022-10-17T09:56:58;17.80;99.90
3100;DHT22;1560;52.746;13.474;2022-10-17T09:59:32;17.80;99.90
3100;DHT22;1560;52.746;13.474;2022-10-17T10:04:58;18.40;99.90
3100;DHT22;1560;52.746;13.474;2022-10-17T10:07:29;18.50;99.90
3100;DHT22;1560;52.746;13.474;2022-10-17T10:09:59;18.80;99.90
3100;DHT22;1560;52.746;13.474;2022-10-17T10:12:31;19.10;99.90
3100;DHT22;1560;52.746;13.474;2022-10-17T10:14:59;19.10;99.90
3100;DHT22;1560;52.746;13.474;2022-10-17T10:20:28;19.10;99.90
3100;DHT22;1560;52.746;13.474;2022-10-17T10:23:11;19.20;99.90
3100;DHT22;1560;52.746;13.474;2022-10-17T10:25:51;19.20;99.90
3100;DHT22;1560;52.746;13.474;2022-10-17T10:28:23;19.30;99.90
3100;DHT22;1560;52.746;13.474;2022-10-17T10:30:54;19.30;99.90
3100;DHT22;1560;52.746;13.474;2022-10-17T10:33:25;19.30;99.90
3100;DHT22;1560;52.746;13.474;2022-10-17T10:35:57;19.30;99.90
3100;DHT22;1560;52.746;13.474;2022-10-17T10:41:05;19.50;99.90
3100;DHT22;1560;52.746;13.474;2022-10-17T10:46:18;19.50;99.90
3100;DHT22;1560;52.746;13.474;2022-10-17T10:48:53;19.50;99.90
3100;DHT22;1560;52.746;13.474;2022-10-17T10:54:01;19.50;99.90
3100;DHT22;1560;52.746;13.474;2022-10-17T10:56:33;19.50;99.90
3100;DHT22;1560;52.746;13.474;2022-10-17T10:59:07;19.50;99.90
3100;DHT22;1560;52.746;13.474;2022-10-17T11:04:26;19.70;99.90
3100;DHT22;1560;52.746;13.474;2022-10-17T11:06:59;19.70;99.90
3100;DHT22;1560;52.746;13.474;2022-10-17T11:09:33;19.60;99.90
3100;DHT22;1560;52.746;13.474;2022-10-17T11:12:05;19.70;99.90
3100;DHT22;1560;52.746;13.474;2022-10-17T11:17:20;19.80;99.90
3100;DHT22;1560;52.746;13.474;2022-10-17T11:19:55;19.90;99.90
3100;DHT22;1560;52.746;13.474;2022-10-17T11:25:12;19.80;99.90
3100;DHT22;1560;52.746;13.474;2022-10-17T11:27:35;19.80;99.90
3100;DHT22;1560;52.746;13.474;2022-10-17T11:30:05;19.80;99.90
3100;DHT22;1560;52.746;13.474;2022-10-17T11:35:22;20.00;99.90
3100;DHT22;1560;52.746;13.474;2022-10-17T11:37:50;20.00;99.90
3100;DHT22;1560;52.746;13.474;2022-10-17T11:42:59;20.00;99.90
3100;DHT22;1560;52.746;13.474;2022-10-17T11:48:09;20.00;99.90
3100;DHT22;1560;52.746;13.474;2022-10-17T11:50:39;20.10;99.90
3100;DHT22;1560;52.746;13.474;2022-10-17T11:53:11;20.10;99.90
3100;DHT22;1560;52.746;13.474;2022-10-17T11:58:23;20.20;99.90
3100;DHT22;1560;52.746;13.474;2022-10-17T12:00:57;20.20;99.90
3100;DHT22;1560;52.746;13.474;2022-10-17T12:06:08;20.30;99.90
3100;DHT22;1560;52.746;13.474;2022-10-17T12:11:24;20.50;99.90
3100;DHT22;1560;52.746;13.474;2022-10-17T12:13:55;20.50;99.90
3100;DHT22;1560;52.746;13.474;2022-10-17T12:19:31;20.50;99.90
3100;DHT22;1560;52.746;13.474;2022-10-17T12:22:14;20.50;99.90
3100;DHT22;1560;52.746;13.474;2022-10-17T12:27:34;20.90;99.90
3100;DHT22;1560;52.746;13.474;2022-10-17T12:30:13;21.10;99.90
3100;DHT22;1560;52.746;13.474;2022-10-17T12:35:17;21.40;99.90
3100;DHT22;1560;52.746;13.474;2022-10-17T12:40:58;21.50;99.90
3100;DHT22;1560;52.746;13.474;2022-10-17T12:46:44;21.50;99.90
3100;DHT22;1560;52.746;13.474;2022-10-17T12:49:37;21.40;99.90
3100;DHT22;1560;52.746;13.474;2022-10-17T12:55:24;21.40;99.90
3100;DHT22;1560;52.746;13.474;2022-10-17T12:57:57;21.50;61.40
3100;DHT22;1560;52.746;13.474;2022-10-17T13:00:34;21.50;33.60
3100;DHT22;1560;52.746;13.474;2022-10-17T13:03:09;21.50;1.00
3100;DHT22;1560;52.746;13.474;2022-10-17T13:05:40;21.40;1.00
3100;DHT22;1560;52.746;13.474;2022-10-17T13:08:15;21.50;1.00
3100;DHT22;1560;52.746;13.474;2022-10-17T13:10:47;21.50;1.00
3100;DHT22;1560;52.746;13.474;2022-10-17T13:13:17;21.60;1.00
3100;DHT22;1560;52.746;13.474;2022-10-17T13:15:47;21.50;1.00
3100;DHT22;1560;52.746;13.474;2022-10-17T13:21:01;21.50;1.00
3100;DHT22;1560;52.746;13.474;2022-10-17T13:26:12;21.50;1.00
3100;DHT22;1560;52.746;13.474;2022-10-17T13:28:42;21.50;1.00
3100;DHT22;1560;52.746;13.474;2022-10-17T13:31:31;21.40;1.00
3100;DHT22;1560;52.746;13.474;2022-10-17T13:34:01;21.50;1.00
3100;DHT22;1560;52.746;13.474;2022-10-17T13:39:08;21.40;1.00
3100;DHT22;1560;52.746;13.474;2022-10-17T13:41:37;21.40;1.00
3100;DHT22;1560;52.746;13.474;2022-10-17T13:44:11;21.30;1.00
3100;DHT22;1560;52.746;13.474;2022-10-17T13:46:41;21.30;1.00
3100;DHT22;1560;52.746;13.474;2022-10-17T13:51:52;21.40;1.00
3100;DHT22;1560;52.746;13.474;2022-10-17T13:57:18;21.30;1.00
3100;DHT22;1560;52.746;13.474;2022-10-17T13:59:49;21.30;1.00
3100;DHT22;1560;52.746;13.474;2022-10-17T14:05:08;21.30;1.00
3100;DHT22;1560;52.746;13.474;2022-10-17T14:07:38;21.20;1.00
3100;DHT22;1560;52.746;13.474;2022-10-17T14:10:16;21.10;1.00
3100;DHT22;1560;52.746;13.474;2022-10-17T14:15:24;21.10;1.00
3100;DHT22;1560;52.746;13.474;2022-10-17T14:17:56;21.20;1.00
3100;DHT22;1560;52.746;13.474;2022-10-17T14:20:26;21.20;1.00
3100;DHT22;1560;52.746;13.474;2022-10-17T14:22:56;21.10;1.00
3100;DHT22;1560;52.746;13.474;2022-10-17T14:25:29;21.00;1.00
3100;DHT22;1560;52.746;13.474;2022-10-17T14:28:06;21.00;1.00
3100;DHT22;1560;52.746;13.474;2022-10-17T14:30:35;21.10;1.00
3100;DHT22;1560;52.746;13.474;2022-10-17T14:33:07;21.20;1.00
3100;DHT22;1560;52.746;13.474;2022-10-17T14:38:13;21.10;1.00
3100;DHT22;1560;52.746;13.474;2022-10-17T14:40:48;21.10;1.00
3100;DHT22;1560;52.746;13.474;2022-10-17T14:45:57;20.90;1.00
3100;DHT22;1560;52.746;13.474;2022-10-17T14:48:28;20.90;1.00
3100;DHT22;1560;52.746;13.474;2022-10-17T14:51:07;20.80;1.00
3100;DHT22;1560;52.746;13.474;2022-10-17T14:56:23;20.70;1.00
3100;DHT22;1560;52.746;13.474;2022-10-17T14:58:52;20.70;1.00
3100;DHT22;1560;52.746;13.474;2022-10-17T15:03:57;20.60;1.00
3100;DHT22;1560;52.746;13.474;2022-10-17T15:06:29;20.60;1.00
3100;DHT22;1560;52.746;13.474;2022-10-17T15:08:58;20.50;1.00
3100;DHT22;1560;52.746;13.474;2022-10-17T15:14:02;20.40;1.00
3100;DHT22;1560;52.746;13.474;2022-10-17T15:16:32;20.30;1.00
3100;DHT22;1560;52.746;13.474;2022-10-17T15:19:01;20.30;1.00
3100;DHT22;1560;52.746;13.474;2022-10-17T15:24:06;20.20;1.00
3100;DHT22;1560;52.746;13.474;2022-10-17T15:26:35;20.20;1.00
3100;DHT22;1560;52.746;13.474;2022-10-17T15:29:04;20.20;1.00
3100;DHT22;1560;52.746;13.474;2022-10-17T15:31:32;20.20;1.00
3100;DHT22;1560;52.746;13.474;2022-10-17T15:34:02;20.10;1.00
3100;DHT22;1560;52.746;13.474;2022-10-17T15:39:06;20.10;1.00
3100;DHT22;1560;52.746;13.474;2022-10-17T15:41:36;20.00;1.00
3100;DHT22;1560;52.746;13.474;2022-10-17T15:44:05;20.00;1.00
3100;DHT22;1560;52.746;13.474;2022-10-17T15:49:12;19.90;21.80
3100;DHT22;1560;52.746;13.474;2022-10-17T15:51:41;19.80;22.10
3100;DHT22;1560;52.746;13.474;2022-10-17T15:54:09;19.80;19.10
3100;DHT22;1560;52.746;13.474;2022-10-17T15:56:40;19.70;19.00
3100;DHT22;1560;52.746;13.474;2022-10-17T15:59:13;19.70;19.30
3100;DHT22;1560;52.746;13.474;2022-10-17T16:04:18;19.70;28.60
3100;DHT22;1560;52.746;13.474;2022-10-17T16:06:47;19.60;52.10
3100;DHT22;1560;52.746;13.474;2022-10-17T16:09:15;19.60;67.20
3100;DHT22;1560;52.746;13.474;2022-10-17T16:14:22;19.50;99.90
3100;DHT22;1560;52.746;13.474;2022-10-17T16:16:50;19.40;99.90
3100;DHT22;1560;52.746;13.474;2022-10-17T16:19:18;19.40;99.90
3100;DHT22;1560;52.746;13.474;2022-10-17T16:21:48;19.30;99.90
3100;DHT22;1560;52.746;13.474;2022-10-17T16:26:53;19.20;99.90
3100;DHT22;1560;52.746;13.474;2022-10-17T16:29:22;19.10;99.90
3100;DHT22;1560;52.746;13.474;2022-10-17T16:31:50;19.00;99.90
3100;DHT22;1560;52.746;13.474;2022-10-17T16:36:55;18.90;99.90
3100;DHT22;1560;52.746;13.474;2022-10-17T16:39:23;18.80;99.90
3100;DHT22;1560;52.746;13.474;2022-10-17T16:41:52;18.80;99.90
3100;DHT22;1560;52.746;13.474;2022-10-17T16:44:20;18.80;99.90
3100;DHT22;1560;52.746;13.474;2022-10-17T16:46:49;18.70;99.90
3100;DHT22;1560;52.746;13.474;2022-10-17T16:49:17;18.70;99.90
3100;DHT22;1560;52.746;13.474;2022-10-17T16:51:45;18.60;99.90
3100;DHT22;1560;52.746;13.474;2022-10-17T16:54:14;18.50;99.90
3100;DHT22;1560;52.746;13.474;2022-10-17T16:56:42;18.50;99.90
3100;DHT22;1560;52.746;13.474;2022-10-17T16:59:11;18.50;99.90
3100;DHT22;1560;52.746;13.474;2022-10-17T17:01:39;18.50;99.90
3100;DHT22;1560;52.746;13.474;2022-10-17T17:04:08;18.40;99.90
3100;DHT22;1560;52.746;13.474;2022-10-17T17:09:13;18.40;99.90
3100;DHT22;1560;52.746;13.474;2022-10-17T17:11:41;18.30;99.90
3100;DHT22;1560;52.746;13.474;2022-10-17T17:14:10;18.30;99.90
3100;DHT22;1560;52.746;13.474;2022-10-17T17:16:39;18.20;99.90
3100;DHT22;1560;52.746;13.474;2022-10-17T17:21:46;18.10;99.90
3100;DHT22;1560;52.746;13.474;2022-10-17T17:24:17;18.10;99.90
3100;DHT22;1560;52.746;13.474;2022-10-17T17:29:24;18.00;99.90
3100;DHT22;1560;52.746;13.474;2022-10-17T17:31:53;18.00;99.90
3100;DHT22;1560;52.746;13.474;2022-10-17T17:34:21;18.00;99.90
3100;DHT22;1560;52.746;13.474;2022-10-17T17:36:50;17.90;99.90
3100;DHT22;1560;52.746;13.474;2022-10-17T17:41:54;17.90;99.90
3100;DHT22;1560;52.746;13.474;2022-10-17T17:44:23;17.90;99.90
3100;DHT22;1560;52.746;13.474;2022-10-17T17:46:52;17.90;99.90
3100;DHT22;1560;52.746;13.474;2022-10-17T17:49:21;17.80;99.90
3100;DHT22;1560;52.746;13.474;2022-10-17T17:51:52;17.70;99.90
3100;DHT22;1560;52.746;13.474;2022-10-17T17:54:20;17.60;99.90
3100;DHT22;1560;52.746;13.474;2022-10-17T17:56:49;17.60;99.90
3100;DHT22;1560;52.746;13.474;2022-10-17T17:59:17;17.50;99.90
3100;DHT22;1560;52.746;13.474;2022-10-17T18:01:46;17.50;99.90
3100;DHT22;1560;52.746;13.474;2022-10-17T18:04:14;17.50;99.90
3100;DHT22;1560;52.746;13.474;2022-10-17T18:06:43;17.50;99.90
3100;DHT22;1560;52.746;13.474;2022-10-17T18:11:48;17.40;99.90
3100;DHT22;1560;52.746;13.474;2022-10-17T18:16:54;17.30;99.90
3100;DHT22;1560;52.746;13.474;2022-10-17T18:19:22;17.30;99.90
3100;DHT22;1560;52.746;13.474;2022-10-17T18:21:51;17.30;99.90
3100;DHT22;1560;52.746;13.474;2022-10-17T18:24:20;17.40;99.90
3100;DHT22;1560;52.746;13.474;2022-10-17T18:26:49;17.40;99.90
3100;DHT22;1560;52.746;13.474;2022-10-17T18:29:19;17.40;99.90
3100;DHT22;1560;52.746;13.474;2022-10-17T18:31:48;17.30;99.90
3100;DHT22;1560;52.746;13.474;2022-10-17T18:36:54;17.40;99.90
3100;DHT22;1560;52.746;13.474;2022-10-17T18:39:23;17.40;99.90
3100;DHT22;1560;52.746;13.474;2022-10-17T18:41:51;17.30;99.90
3100;DHT22;1560;52.746;13.474;2022-10-17T18:44:20;17.30;99.90
3100;DHT22;1560;52.746;13.474;2022-10-17T18:46:49;17.30;99.90
3100;DHT22;1560;52.746;13.474;2022-10-17T18:49:19;17.20;99.90
3100;DHT22;1560;52.746;13.474;2022-10-17T18:51:49;17.20;99.90
3100;DHT22;1560;52.746;13.474;2022-10-17T18:56:54;17.10;99.90
3100;DHT22;1560;52.746;13.474;2022-10-17T18:59:23;17.10;99.90
3100;DHT22;1560;52.746;13.474;2022-10-17T19:01:52;17.10;99.90
3100;DHT22;1560;52.746;13.474;2022-10-17T19:04:20;17.10;99.90
3100;DHT22;1560;52.746;13.474;2022-10-17T19:06:49;17.00;99.90
3100;DHT22;1560;52.746;13.474;2022-10-17T19:09:17;17.00;99.90
3100;DHT22;1560;52.746;13.474;2022-10-17T19:11:46;17.00;99.90
3100;DHT22;1560;52.746;13.474;2022-10-17T19:14:14;17.00;99.90
3100;DHT22;1560;52.746;13.474;2022-10-17T19:19:20;17.10;99.90
3100;DHT22;1560;52.746;13.474;2022-10-17T19:21:49;17.10;99.90
3100;DHT22;1560;52.746;13.474;2022-10-17T19:26:58;17.10;99.90
3100;DHT22;1560;52.746;13.474;2022-10-17T19:29:29;17.00;99.90
3100;DHT22;1560;52.746;13.474;2022-10-17T19:31:58;17.00;99.90
3100;DHT22;1560;52.746;13.474;2022-10-17T19:34:27;17.00;99.90
3100;DHT22;1560;52.746;13.474;2022-10-17T19:36:55;17.00;99.90
3100;DHT22;1560;52.746;13.474;2022-10-17T19:41:59;17.00;99.90
3100;DHT22;1560;52.746;13.474;2022-10-17T19:44:28;16.90;99.90
3100;DHT22;1560;52.746;13.474;2022-10-17T19:46:57;16.90;99.90
3100;DHT22;1560;52.746;13.474;2022-10-17T19:49:25;17.00;99.90
3100;DHT22;1560;52.746;13.474;2022-10-17T19:51:54;17.00;99.90
3100;DHT22;1560;52.746;13.474;2022-10-17T19:54:22;16.90;99.90
3100;DHT22;1560;52.746;13.474;2022-10-17T19:56:51;16.90;99.90
3100;DHT22;1560;52.746;13.474;2022-10-17T19:59:19;16.90;99.90
3100;DHT22;1560;52.746;13.474;2022-10-17T20:01:48;16.90;99.90
3100;DHT22;1560;52.746;13.474;2022-10-17T20:06:54;16.90;99.90
3100;DHT22;1560;52.746;13.474;2022-10-17T20:09:24;16.90;99.90
3100;DHT22;1560;52.746;13.474;2022-10-17T20:11:53;16.90;99.90
3100;DHT22;1560;52.746;13.474;2022-10-17T20:16:57;16.80;99.90
3100;DHT22;1560;52.746;13.474;2022-10-17T20:19:26;16.80;99.90
3100;DHT22;1560;52.746;13.474;2022-10-17T20:21:55;16.70;99.90
3100;DHT22;1560;52.746;13.474;2022-10-17T20:26:59;16.70;99.90
3100;DHT22;1560;52.746;13.474;2022-10-17T20:29:28;16.60;99.90
3100;DHT22;1560;52.746;13.474;2022-10-17T20:34:32;16.60;99.90
3100;DHT22;1560;52.746;13.474;2022-10-17T20:37:02;16.70;99.90
3100;DHT22;1560;52.746;13.474;2022-10-17T20:39:30;16.60;99.90
3100;DHT22;1560;52.746;13.474;2022-10-17T20:41:59;16.60;99.90
3100;DHT22;1560;52.746;13.474;2022-10-17T20:47:06;16.60;99.90
3100;DHT22;1560;52.746;13.474;2022-10-17T20:49:34;16.60;99.90
3100;DHT22;1560;52.746;13.474;2022-10-17T20:52:03;16.50;99.90
3100;DHT22;1560;52.746;13.474;2022-10-17T20:57:09;16.50;99.90
3100;DHT22;1560;52.746;13.474;2022-10-17T20:59:37;16.50;99.90
3100;DHT22;1560;52.746;13.474;2022-10-17T21:02:09;16.60;99.90